sensor_id;sensor_type;location;lat;lon;timestamp;P1;durP1;ratioP1;P2;durP2;ratioP2
7179;SDS011;3631;42.152;24.756;2024-03-17T00:01:37;16.90;;;13.03;;
7179;SDS011;3631;42.152;24.756;2024-03-17T00:04:06;18.33;;;12.27;;
7179;SDS011;3631;42.152;24.756;2024-03-17T00:06:34;18.70;;;13.20;;
7179;SDS011;3631;42.152;24.756;2024-03-17T00:09:01;18.53;;;13.00;;
7179;SDS011;3631;42.152;24.756;2024-03-17T00:11:31;18.33;;;12.63;;
7179;SDS011;3631;42.152;24.756;2024-03-17T00:13:58;17.57;;;12.67;;
7179;SDS011;3631;42.152;24.756;2024-03-17T00:16:24;18.17;;;13.10;;
7179;SDS011;3631;42.152;24.756;2024-03-17T00:18:51;20.63;;;12.83;;
7179;SDS011;3631;42.152;24.756;2024-03-17T00:21:16;19.97;;;13.37;;
7179;SDS011;3631;42.152;24.756;2024-03-17T00:23:46;20.60;;;14.07;;
7179;SDS011;3631;42.152;24.756;2024-03-17T00:26:14;19.17;;;13.70;;
7179;SDS011;3631;42.152;24.756;2024-03-17T00:28:41;18.70;;;13.57;;
7179;SDS011;3631;42.152;24.756;2024-03-17T00:31:07;18.60;;;12.77;;
7179;SDS011;3631;42.152;24.756;2024-03-17T00:33:35;17.63;;;13.33;;
7179;SDS011;3631;42.152;24.756;2024-03-17T00:36:01;18.27;;;13.37;;
7179;SDS011;3631;42.152;24.756;2024-03-17T00:38:28;22.97;;;14.53;;
7179;SDS011;3631;42.152;24.756;2024-03-17T00:40:55;21.53;;;14.17;;
7179;SDS011;3631;42.152;24.756;2024-03-17T00:43:22;20.00;;;13.47;;
7179;SDS011;3631;42.152;24.756;2024-03-17T00:45:51;21.83;;;14.33;;
7179;SDS011;3631;42.152;24.756;2024-03-17T00:48:18;18.27;;;13.33;;
7179;SDS011;3631;42.152;24.756;2024-03-17T00:50:44;19.53;;;14.07;;
7179;SDS011;3631;42.152;24.756;2024-03-17T00:53:11;23.70;;;14.43;;
7179;SDS011;3631;42.152;24.756;2024-03-17T00:55:37;18.47;;;13.03;;
7179;SDS011;3631;42.152;24.756;2024-03-17T00:58:06;19.93;;;13.87;;
7179;SDS011;3631;42.152;24.756;2024-03-17T01:00:33;19.00;;;14.47;;
7179;SDS011;3631;42.152;24.756;2024-03-17T01:03:00;24.83;;;13.80;;
7179;SDS011;3631;42.152;24.756;2024-03-17T01:05:25;19.83;;;13.80;;
7179;SDS011;3631;42.152;24.756;2024-03-17T01:07:52;21.07;;;14.40;;
7179;SDS011;3631;42.152;24.756;2024-03-17T01:10:18;20.87;;;13.93;;
7179;SDS011;3631;42.152;24.756;2024-03-17T01:12:45;19.10;;;13.70;;
7179;SDS011;3631;42.152;24.756;2024-03-17T01:15:13;19.93;;;13.97;;
7179;SDS011;3631;42.152;24.756;2024-03-17T01:17:39;22.40;;;14.90;;
7179;SDS011;3631;42.152;24.756;2024-03-17T01:20:07;20.67;;;13.27;;
7179;SDS011;3631;42.152;24.756;2024-03-17T01:22:34;21.17;;;14.30;;
7179;SDS011;3631;42.152;24.756;2024-03-17T01:25:00;21.73;;;14.43;;
7179;SDS011;3631;42.152;24.756;2024-03-17T01:27:27;23.83;;;14.60;;
7179;SDS011;3631;42.152;24.756;2024-03-17T01:29:53;20.33;;;14.50;;
7179;SDS011;3631;42.152;24.756;2024-03-17T01:32:21;27.07;;;15.70;;
7179;SDS011;3631;42.152;24.756;2024-03-17T01:34:47;24.17;;;14.27;;
7179;SDS011;3631;42.152;24.756;2024-03-17T01:37:14;25.57;;;15.37;;
7179;SDS011;3631;42.152;24.756;2024-03-17T01:39:40;19.83;;;14.13;;
7179;SDS011;3631;42.152;24.756;2024-03-17T01:42:07;19.20;;;13.93;;
7179;SDS011;3631;42.152;24.756;2024-03-17T01:44:33;23.23;;;15.27;;
7179;SDS011;3631;42.152;24.756;2024-03-17T01:47:00;20.80;;;14.33;;
7179;SDS011;3631;42.152;24.756;2024-03-17T01:49:27;23.10;;;15.07;;
7179;SDS011;3631;42.152;24.756;2024-03-17T01:51:55;23.97;;;15.70;;
7179;SDS011;3631;42.152;24.756;2024-03-17T01:54:21;22.70;;;15.03;;
7179;SDS011;3631;42.152;24.756;2024-03-17T01:56:48;27.50;;;16.30;;
7179;SDS011;3631;42.152;24.756;2024-03-17T01:59:14;21.73;;;14.97;;
7179;SDS011;3631;42.152;24.756;2024-03-17T02:01:41;26.80;;;15.30;;
7179;SDS011;3631;42.152;24.756;2024-03-17T02:04:07;22.40;;;15.40;;
7179;SDS011;3631;42.152;24.756;2024-03-17T02:06:36;26.17;;;16.83;;
7179;SDS011;3631;42.152;24.756;2024-03-17T02:09:02;23.33;;;15.33;;
7179;SDS011;3631;42.152;24.756;2024-03-17T02:11:29;23.93;;;16.03;;
7179;SDS011;3631;42.152;24.756;2024-03-17T02:13:56;34.87;;;16.17;;
7179;SDS011;3631;42.152;24.756;2024-03-17T02:16:24;22.30;;;15.30;;
7179;SDS011;3631;42.152;24.756;2024-03-17T02:18:53;24.27;;;15.93;;
7179;SDS011;3631;42.152;24.756;2024-03-17T02:21:21;24.50;;;16.53;;
7179;SDS011;3631;42.152;24.756;2024-03-17T02:23:49;24.27;;;14.80;;
7179;SDS011;3631;42.152;24.756;2024-03-17T02:26:16;24.23;;;16.33;;
7179;SDS011;3631;42.152;24.756;2024-03-17T02:28:44;27.67;;;17.17;;
7179;SDS011;3631;42.152;24.756;2024-03-17T02:31:12;26.47;;;16.93;;
7179;SDS011;3631;42.152;24.756;2024-03-17T02:33:40;30.23;;;17.33;;
7179;SDS011;3631;42.152;24.756;2024-03-17T02:36:07;27.53;;;17.37;;
7179;SDS011;3631;42.152;24.756;2024-03-17T02:38:34;29.43;;;17.43;;
7179;SDS011;3631;42.152;24.756;2024-03-17T02:41:20;24.90;;;16.07;;
7179;SDS011;3631;42.152;24.756;2024-03-17T02:43:47;27.30;;;16.37;;
7179;SDS011;3631;42.152;24.756;2024-03-17T02:46:16;27.13;;;17.03;;
7179;SDS011;3631;42.152;24.756;2024-03-17T02:48:45;27.60;;;17.50;;
7179;SDS011;3631;42.152;24.756;2024-03-17T02:51:13;29.27;;;17.63;;
7179;SDS011;3631;42.152;24.756;2024-03-17T02:53:41;29.87;;;17.70;;
7179;SDS011;3631;42.152;24.756;2024-03-17T02:56:08;28.80;;;17.07;;
7179;SDS011;3631;42.152;24.756;2024-03-17T02:58:36;30.67;;;18.40;;
7179;SDS011;3631;42.152;24.756;2024-03-17T03:01:04;30.80;;;18.93;;
7179;SDS011;3631;42.152;24.756;2024-03-17T03:03:32;28.47;;;17.30;;
7179;SDS011;3631;42.152;24.756;2024-03-17T03:06:00;30.90;;;17.70;;
7179;SDS011;3631;42.152;24.756;2024-03-17T03:08:29;31.40;;;18.33;;
7179;SDS011;3631;42.152;24.756;2024-03-17T03:10:56;30.90;;;18.13;;
7179;SDS011;3631;42.152;24.756;2024-03-17T03:13:23;29.23;;;18.27;;
7179;SDS011;3631;42.152;24.756;2024-03-17T03:15:51;29.30;;;17.77;;
7179;SDS011;3631;42.152;24.756;2024-03-17T03:18:18;32.43;;;17.93;;
7179;SDS011;3631;42.152;24.756;2024-03-17T03:20:49;28.43;;;17.07;;
7179;SDS011;3631;42.152;24.756;2024-03-17T03:23:17;31.27;;;17.80;;
7179;SDS011;3631;42.152;24.756;2024-03-17T03:25:44;30.63;;;17.10;;
7179;SDS011;3631;42.152;24.756;2024-03-17T03:28:11;30.23;;;18.13;;
7179;SDS011;3631;42.152;24.756;2024-03-17T03:30:38;33.00;;;18.70;;
7179;SDS011;3631;42.152;24.756;2024-03-17T03:33:07;32.73;;;19.17;;
7179;SDS011;3631;42.152;24.756;2024-03-17T03:35:34;29.83;;;17.63;;
7179;SDS011;3631;42.152;24.756;2024-03-17T03:38:01;36.13;;;20.50;;
7179;SDS011;3631;42.152;24.756;2024-03-17T03:40:29;33.17;;;19.27;;
7179;SDS011;3631;42.152;24.756;2024-03-17T03:42:56;27.83;;;18.37;;
7179;SDS011;3631;42.152;24.756;2024-03-17T03:45:23;31.27;;;19.17;;
7179;SDS011;3631;42.152;24.756;2024-03-17T03:47:50;31.73;;;19.50;;
7179;SDS011;3631;42.152;24.756;2024-03-17T03:50:21;31.47;;;19.00;;
7179;SDS011;3631;42.152;24.756;2024-03-17T03:52:48;35.07;;;20.07;;
7179;SDS011;3631;42.152;24.756;2024-03-17T03:55:16;31.70;;;20.43;;
7179;SDS011;3631;42.152;24.756;2024-03-17T03:57:43;33.00;;;19.70;;
7179;SDS011;3631;42.152;24.756;2024-03-17T04:00:13;32.17;;;19.17;;
7179;SDS011;3631;42.152;24.756;2024-03-17T04:02:41;35.50;;;20.20;;
7179;SDS011;3631;42.152;24.756;2024-03-17T04:05:08;33.73;;;19.17;;
7179;SDS011;3631;42.152;24.756;2024-03-17T04:07:37;33.93;;;19.93;;
7179;SDS011;3631;42.152;24.756;2024-03-17T04:10:05;35.77;;;19.63;;
7179;SDS011;3631;42.152;24.756;2024-03-17T04:12:32;35.43;;;18.87;;
7179;SDS011;3631;42.152;24.756;2024-03-17T04:14:59;41.37;;;19.40;;
7179;SDS011;3631;42.152;24.756;2024-03-17T04:17:26;32.00;;;19.03;;
7179;SDS011;3631;42.152;24.756;2024-03-17T04:19:53;33.73;;;19.67;;
7179;SDS011;3631;42.152;24.756;2024-03-17T04:22:21;32.93;;;19.67;;
7179;SDS011;3631;42.152;24.756;2024-03-17T04:24:49;32.37;;;18.37;;
7179;SDS011;3631;42.152;24.756;2024-03-17T04:27:19;31.53;;;18.43;;
7179;SDS011;3631;42.152;24.756;2024-03-17T04:29:46;33.73;;;20.00;;
7179;SDS011;3631;42.152;24.756;2024-03-17T04:32:13;40.07;;;17.90;;
7179;SDS011;3631;42.152;24.756;2024-03-17T04:34:40;30.80;;;17.77;;
7179;SDS011;3631;42.152;24.756;2024-03-17T04:37:08;35.47;;;20.17;;
7179;SDS011;3631;42.152;24.756;2024-03-17T04:39:36;34.90;;;20.77;;
7179;SDS011;3631;42.152;24.756;2024-03-17T04:42:05;34.03;;;20.53;;
7179;SDS011;3631;42.152;24.756;2024-03-17T04:44:32;32.97;;;19.63;;
7179;SDS011;3631;42.152;24.756;2024-03-17T04:46:59;34.80;;;19.30;;
7179;SDS011;3631;42.152;24.756;2024-03-17T04:49:27;34.40;;;19.73;;
7179;SDS011;3631;42.152;24.756;2024-03-17T04:51:54;35.07;;;19.93;;
7179;SDS011;3631;42.152;24.756;2024-03-17T04:54:21;34.93;;;19.27;;
7179;SDS011;3631;42.152;24.756;2024-03-17T04:56:48;30.60;;;18.50;;
7179;SDS011;3631;42.152;24.756;2024-03-17T04:59:16;33.57;;;19.80;;
7179;SDS011;3631;42.152;24.756;2024-03-17T05:01:43;33.27;;;19.03;;
7179;SDS011;3631;42.152;24.756;2024-03-17T05:04:10;30.20;;;19.60;;
7179;SDS011;3631;42.152;24.756;2024-03-17T05:06:37;33.40;;;19.00;;
7179;SDS011;3631;42.152;24.756;2024-03-17T05:09:03;30.20;;;18.77;;
7179;SDS011;3631;42.152;24.756;2024-03-17T05:11:31;36.33;;;18.63;;
7179;SDS011;3631;42.152;24.756;2024-03-17T05:13:58;30.20;;;18.17;;
7179;SDS011;3631;42.152;24.756;2024-03-17T05:16:26;33.50;;;18.90;;
7179;SDS011;3631;42.152;24.756;2024-03-17T05:18:55;34.03;;;18.60;;
7179;SDS011;3631;42.152;24.756;2024-03-17T05:21:22;31.23;;;19.43;;
7179;SDS011;3631;42.152;24.756;2024-03-17T05:23:51;31.30;;;19.10;;
7179;SDS011;3631;42.152;24.756;2024-03-17T05:26:18;31.93;;;18.33;;
7179;SDS011;3631;42.152;24.756;2024-03-17T05:28:45;35.57;;;20.40;;
7179;SDS011;3631;42.152;24.756;2024-03-17T05:31:12;32.17;;;19.83;;
7179;SDS011;3631;42.152;24.756;2024-03-17T05:33:44;34.67;;;20.53;;
7179;SDS011;3631;42.152;24.756;2024-03-17T05:36:11;38.03;;;20.43;;
7179;SDS011;3631;42.152;24.756;2024-03-17T05:38:38;37.13;;;21.13;;
7179;SDS011;3631;42.152;24.756;2024-03-17T05:41:05;33.90;;;21.00;;
7179;SDS011;3631;42.152;24.756;2024-03-17T05:43:34;37.50;;;20.23;;
7179;SDS011;3631;42.152;24.756;2024-03-17T05:46:03;38.33;;;21.67;;
7179;SDS011;3631;42.152;24.756;2024-03-17T05:48:31;34.17;;;21.23;;
7179;SDS011;3631;42.152;24.756;2024-03-17T05:51:01;37.50;;;21.33;;
7179;SDS011;3631;42.152;24.756;2024-03-17T05:53:28;40.20;;;22.67;;
7179;SDS011;3631;42.152;24.756;2024-03-17T05:55:58;37.70;;;22.37;;
7179;SDS011;3631;42.152;24.756;2024-03-17T05:58:25;38.17;;;22.60;;
7179;SDS011;3631;42.152;24.756;2024-03-17T06:00:52;37.17;;;22.10;;
7179;SDS011;3631;42.152;24.756;2024-03-17T06:03:19;37.20;;;21.90;;
7179;SDS011;3631;42.152;24.756;2024-03-17T06:05:47;38.30;;;23.13;;
7179;SDS011;3631;42.152;24.756;2024-03-17T06:08:15;40.23;;;22.87;;
7179;SDS011;3631;42.152;24.756;2024-03-17T06:10:43;36.47;;;21.53;;
7179;SDS011;3631;42.152;24.756;2024-03-17T06:13:11;34.30;;;21.30;;
7179;SDS011;3631;42.152;24.756;2024-03-17T06:15:40;34.60;;;21.80;;
7179;SDS011;3631;42.152;24.756;2024-03-17T06:18:07;32.73;;;20.97;;
7179;SDS011;3631;42.152;24.756;2024-03-17T06:20:39;36.30;;;20.53;;
7179;SDS011;3631;42.152;24.756;2024-03-17T06:23:07;33.20;;;20.63;;
7179;SDS011;3631;42.152;24.756;2024-03-17T06:25:38;32.70;;;20.77;;
7179;SDS011;3631;42.152;24.756;2024-03-17T06:28:06;34.77;;;19.83;;
7179;SDS011;3631;42.152;24.756;2024-03-17T06:30:33;30.47;;;19.27;;
7179;SDS011;3631;42.152;24.756;2024-03-17T06:33:01;32.90;;;21.40;;
7179;SDS011;3631;42.152;24.756;2024-03-17T06:35:28;28.60;;;19.43;;
7179;SDS011;3631;42.152;24.756;2024-03-17T06:37:58;33.40;;;20.53;;
7179;SDS011;3631;42.152;24.756;2024-03-17T06:40:26;30.60;;;19.67;;
7179;SDS011;3631;42.152;24.756;2024-03-17T06:42:54;28.80;;;19.03;;
7179;SDS011;3631;42.152;24.756;2024-03-17T06:45:21;28.37;;;20.40;;
7179;SDS011;3631;42.152;24.756;2024-03-17T06:47:49;35.67;;;20.47;;
7179;SDS011;3631;42.152;24.756;2024-03-17T06:50:16;34.23;;;20.43;;
7179;SDS011;3631;42.152;24.756;2024-03-17T06:52:43;32.07;;;21.00;;
7179;SDS011;3631;42.152;24.756;2024-03-17T06:55:11;29.40;;;21.10;;
7179;SDS011;3631;42.152;24.756;2024-03-17T06:57:38;34.80;;;20.40;;
7179;SDS011;3631;42.152;24.756;2024-03-17T07:00:10;30.00;;;19.00;;
7179;SDS011;3631;42.152;24.756;2024-03-17T07:02:39;38.37;;;20.63;;
7179;SDS011;3631;42.152;24.756;2024-03-17T07:05:11;33.30;;;21.07;;
7179;SDS011;3631;42.152;24.756;2024-03-17T07:07:40;38.07;;;21.73;;
7179;SDS011;3631;42.152;24.756;2024-03-17T07:10:07;34.60;;;20.27;;
7179;SDS011;3631;42.152;24.756;2024-03-17T07:12:36;33.57;;;20.57;;
7179;SDS011;3631;42.152;24.756;2024-03-17T07:15:03;31.13;;;20.93;;
7179;SDS011;3631;42.152;24.756;2024-03-17T07:17:32;30.63;;;20.30;;
7179;SDS011;3631;42.152;24.756;2024-03-17T07:19:59;34.97;;;22.13;;
7179;SDS011;3631;42.152;24.756;2024-03-17T07:22:26;33.57;;;22.03;;
7179;SDS011;3631;42.152;24.756;2024-03-17T07:24:54;33.40;;;21.00;;
7179;SDS011;3631;42.152;24.756;2024-03-17T07:27:26;35.20;;;22.37;;
7179;SDS011;3631;42.152;24.756;2024-03-17T07:29:53;31.27;;;21.50;;
7179;SDS011;3631;42.152;24.756;2024-03-17T07:32:20;33.93;;;21.47;;
7179;SDS011;3631;42.152;24.756;2024-03-17T07:34:49;32.63;;;22.03;;
7179;SDS011;3631;42.152;24.756;2024-03-17T07:37:16;32.27;;;21.33;;
7179;SDS011;3631;42.152;24.756;2024-03-17T07:39:43;34.10;;;21.70;;
7179;SDS011;3631;42.152;24.756;2024-03-17T07:42:14;35.17;;;21.40;;
7179;SDS011;3631;42.152;24.756;2024-03-17T07:44:43;35.97;;;22.33;;
7179;SDS011;3631;42.152;24.756;2024-03-17T07:47:10;34.97;;;22.03;;
7179;SDS011;3631;42.152;24.756;2024-03-17T07:49:37;32.97;;;20.67;;
7179;SDS011;3631;42.152;24.756;2024-03-17T07:52:06;28.97;;;19.00;;
7179;SDS011;3631;42.152;24.756;2024-03-17T07:54:33;27.13;;;17.57;;
7179;SDS011;3631;42.152;24.756;2024-03-17T07:57:00;28.37;;;17.87;;
7179;SDS011;3631;42.152;24.756;2024-03-17T07:59:27;26.87;;;17.10;;
7179;SDS011;3631;42.152;24.756;2024-03-17T08:01:55;21.40;;;16.13;;
7179;SDS011;3631;42.152;24.756;2024-03-17T08:04:23;23.63;;;16.50;;
7179;SDS011;3631;42.152;24.756;2024-03-17T08:06:50;22.67;;;16.27;;
7179;SDS011;3631;42.152;24.756;2024-03-17T08:09:18;29.50;;;18.20;;
7179;SDS011;3631;42.152;24.756;2024-03-17T08:11:45;26.83;;;18.17;;
7179;SDS011;3631;42.152;24.756;2024-03-17T08:14:12;35.97;;;18.83;;
7179;SDS011;3631;42.152;24.756;2024-03-17T08:16:40;28.27;;;18.33;;
7179;SDS011;3631;42.152;24.756;2024-03-17T08:19:07;28.90;;;17.53;;
7179;SDS011;3631;42.152;24.756;2024-03-17T08:21:34;25.70;;;17.77;;
7179;SDS011;3631;42.152;24.756;2024-03-17T08:24:01;25.83;;;18.57;;
7179;SDS011;3631;42.152;24.756;2024-03-17T08:26:30;28.30;;;18.63;;
7179;SDS011;3631;42.152;24.756;2024-03-17T08:28:57;26.37;;;19.40;;
7179;SDS011;3631;42.152;24.756;2024-03-17T08:31:24;26.83;;;18.77;;
7179;SDS011;3631;42.152;24.756;2024-03-17T08:33:51;31.33;;;20.50;;
7179;SDS011;3631;42.152;24.756;2024-03-17T08:36:18;27.87;;;19.40;;
7179;SDS011;3631;42.152;24.756;2024-03-17T08:38:46;25.80;;;18.73;;
7179;SDS011;3631;42.152;24.756;2024-03-17T08:41:14;27.30;;;19.37;;
7179;SDS011;3631;42.152;24.756;2024-03-17T08:43:43;30.23;;;20.37;;
7179;SDS011;3631;42.152;24.756;2024-03-17T08:46:10;27.63;;;18.83;;
7179;SDS011;3631;42.152;24.756;2024-03-17T08:48:39;30.10;;;19.63;;
7179;SDS011;3631;42.152;24.756;2024-03-17T08:51:07;29.37;;;19.60;;
7179;SDS011;3631;42.152;24.756;2024-03-17T08:53:35;29.07;;;19.43;;
7179;SDS011;3631;42.152;24.756;2024-03-17T08:56:04;30.00;;;20.60;;
7179;SDS011;3631;42.152;24.756;2024-03-17T08:58:31;30.70;;;19.97;;
7179;SDS011;3631;42.152;24.756;2024-03-17T09:01:02;27.57;;;19.77;;
7179;SDS011;3631;42.152;24.756;2024-03-17T09:03:29;28.20;;;19.40;;
7179;SDS011;3631;42.152;24.756;2024-03-17T09:05:57;27.67;;;19.73;;
7179;SDS011;3631;42.152;24.756;2024-03-17T09:08:24;26.67;;;19.33;;
7179;SDS011;3631;42.152;24.756;2024-03-17T09:10:52;27.97;;;18.40;;
7179;SDS011;3631;42.152;24.756;2024-03-17T09:13:20;29.03;;;19.87;;
7179;SDS011;3631;42.152;24.756;2024-03-17T09:15:52;25.23;;;19.20;;
7179;SDS011;3631;42.152;24.756;2024-03-17T09:18:21;27.13;;;19.77;;
7179;SDS011;3631;42.152;24.756;2024-03-17T09:20:55;25.77;;;19.57;;
7179;SDS011;3631;42.152;24.756;2024-03-17T09:23:23;28.00;;;19.63;;
7179;SDS011;3631;42.152;24.756;2024-03-17T09:25:54;33.77;;;20.00;;
7179;SDS011;3631;42.152;24.756;2024-03-17T09:28:22;30.83;;;20.13;;
7179;SDS011;3631;42.152;24.756;2024-03-17T09:30:49;28.23;;;19.43;;
7179;SDS011;3631;42.152;24.756;2024-03-17T09:33:17;31.63;;;21.17;;
7179;SDS011;3631;42.152;24.756;2024-03-17T09:35:53;27.30;;;19.47;;
7179;SDS011;3631;42.152;24.756;2024-03-17T09:38:21;32.77;;;19.87;;
7179;SDS011;3631;42.152;24.756;2024-03-17T09:40:48;30.07;;;19.53;;
7179;SDS011;3631;42.152;24.756;2024-03-17T09:43:18;35.10;;;20.07;;
7179;SDS011;3631;42.152;24.756;2024-03-17T09:45:45;33.53;;;20.70;;
7179;SDS011;3631;42.152;24.756;2024-03-17T09:48:13;29.37;;;20.90;;
7179;SDS011;3631;42.152;24.756;2024-03-17T09:50:44;26.47;;;19.20;;
7179;SDS011;3631;42.152;24.756;2024-03-17T09:53:19;27.60;;;19.23;;
7179;SDS011;3631;42.152;24.756;2024-03-17T09:55:50;35.73;;;21.80;;
7179;SDS011;3631;42.152;24.756;2024-03-17T09:58:18;37.37;;;20.90;;
7179;SDS011;3631;42.152;24.756;2024-03-17T10:00:46;34.50;;;21.80;;
7179;SDS011;3631;42.152;24.756;2024-03-17T10:03:14;27.63;;;20.77;;
7179;SDS011;3631;42.152;24.756;2024-03-17T10:06:08;30.37;;;20.13;;
7179;SDS011;3631;42.152;24.756;2024-03-17T10:08:45;28.70;;;19.97;;
7179;SDS011;3631;42.152;24.756;2024-03-17T10:11:13;41.37;;;24.30;;
7179;SDS011;3631;42.152;24.756;2024-03-17T10:13:41;28.30;;;19.90;;
7179;SDS011;3631;42.152;24.756;2024-03-17T10:16:17;31.73;;;22.43;;
7179;SDS011;3631;42.152;24.756;2024-03-17T10:18:48;27.53;;;20.97;;
7179;SDS011;3631;42.152;24.756;2024-03-17T10:21:21;29.53;;;19.87;;
7179;SDS011;3631;42.152;24.756;2024-03-17T10:24:02;35.53;;;19.40;;
7179;SDS011;3631;42.152;24.756;2024-03-17T10:26:30;29.33;;;18.73;;
7179;SDS011;3631;42.152;24.756;2024-03-17T10:28:57;23.73;;;17.50;;
7179;SDS011;3631;42.152;24.756;2024-03-17T10:31:24;25.27;;;18.17;;
7179;SDS011;3631;42.152;24.756;2024-03-17T10:34:00;26.80;;;18.90;;
7179;SDS011;3631;42.152;24.756;2024-03-17T10:36:28;26.67;;;18.20;;
7179;SDS011;3631;42.152;24.756;2024-03-17T10:38:54;22.83;;;17.03;;
7179;SDS011;3631;42.152;24.756;2024-03-17T10:41:23;22.33;;;16.60;;
7179;SDS011;3631;42.152;24.756;2024-03-17T10:43:53;25.03;;;18.23;;
7179;SDS011;3631;42.152;24.756;2024-03-17T10:46:21;28.10;;;18.00;;
7179;SDS011;3631;42.152;24.756;2024-03-17T10:48:51;23.93;;;17.97;;
7179;SDS011;3631;42.152;24.756;2024-03-17T10:51:19;23.77;;;16.83;;
7179;SDS011;3631;42.152;24.756;2024-03-17T10:53:47;21.37;;;16.23;;
7179;SDS011;3631;42.152;24.756;2024-03-17T10:56:18;20.90;;;16.33;;
7179;SDS011;3631;42.152;24.756;2024-03-17T10:58:48;25.57;;;17.80;;
7179;SDS011;3631;42.152;24.756;2024-03-17T11:01:22;22.83;;;16.07;;
7179;SDS011;3631;42.152;24.756;2024-03-17T11:03:50;20.40;;;16.33;;
7179;SDS011;3631;42.152;24.756;2024-03-17T11:06:18;22.73;;;16.63;;
7179;SDS011;3631;42.152;24.756;2024-03-17T11:08:45;22.23;;;16.70;;
7179;SDS011;3631;42.152;24.756;2024-03-17T11:11:12;24.43;;;17.90;;
7179;SDS011;3631;42.152;24.756;2024-03-17T11:13:40;20.93;;;16.47;;
7179;SDS011;3631;42.152;24.756;2024-03-17T11:16:24;23.80;;;17.17;;
7179;SDS011;3631;42.152;24.756;2024-03-17T11:18:51;21.67;;;16.63;;
7179;SDS011;3631;42.152;24.756;2024-03-17T11:21:20;23.17;;;17.60;;
7179;SDS011;3631;42.152;24.756;2024-03-17T11:23:57;22.60;;;16.07;;
7179;SDS011;3631;42.152;24.756;2024-03-17T11:26:29;22.33;;;16.70;;
7179;SDS011;3631;42.152;24.756;2024-03-17T11:28:58;20.87;;;15.93;;
7179;SDS011;3631;42.152;24.756;2024-03-17T11:31:37;18.43;;;14.77;;
7179;SDS011;3631;42.152;24.756;2024-03-17T11:37:09;15.70;;;12.83;;
7179;SDS011;3631;42.152;24.756;2024-03-17T11:40:22;18.70;;;13.30;;
7179;SDS011;3631;42.152;24.756;2024-03-17T11:43:00;16.20;;;13.90;;
7179;SDS011;3631;42.152;24.756;2024-03-17T11:45:27;14.10;;;11.63;;
7179;SDS011;3631;42.152;24.756;2024-03-17T11:47:55;16.67;;;12.63;;
7179;SDS011;3631;42.152;24.756;2024-03-17T11:50:22;14.20;;;10.53;;
7179;SDS011;3631;42.152;24.756;2024-03-17T11:52:57;13.43;;;11.57;;
7179;SDS011;3631;42.152;24.756;2024-03-17T11:55:24;12.63;;;11.27;;
7179;SDS011;3631;42.152;24.756;2024-03-17T11:57:55;16.57;;;13.13;;
7179;SDS011;3631;42.152;24.756;2024-03-17T12:00:22;14.00;;;12.37;;
7179;SDS011;3631;42.152;24.756;2024-03-17T12:02:49;17.17;;;12.88;;
7179;SDS011;3631;42.152;24.756;2024-03-17T12:05:18;12.67;;;11.33;;
7179;SDS011;3631;42.152;24.756;2024-03-17T12:07:46;18.50;;;11.73;;
7179;SDS011;3631;42.152;24.756;2024-03-17T12:10:13;13.10;;;10.00;;
7179;SDS011;3631;42.152;24.756;2024-03-17T12:12:40;12.30;;;9.70;;
7179;SDS011;3631;42.152;24.756;2024-03-17T12:15:16;10.40;;;9.40;;
7179;SDS011;3631;42.152;24.756;2024-03-17T12:17:43;9.98;;;9.05;;
7179;SDS011;3631;42.152;24.756;2024-03-17T12:20:21;9.80;;;8.90;;
7179;SDS011;3631;42.152;24.756;2024-03-17T12:22:47;8.80;;;8.00;;
7179;SDS011;3631;42.152;24.756;2024-03-17T12:25:17;17.02;;;9.05;;
7179;SDS011;3631;42.152;24.756;2024-03-17T12:27:44;10.57;;;8.90;;
7179;SDS011;3631;42.152;24.756;2024-03-17T12:30:13;10.10;;;9.05;;
7179;SDS011;3631;42.152;24.756;2024-03-17T12:32:40;15.93;;;8.95;;
7179;SDS011;3631;42.152;24.756;2024-03-17T12:35:12;11.88;;;8.73;;
7179;SDS011;3631;42.152;24.756;2024-03-17T12:37:42;9.30;;;8.45;;
7179;SDS011;3631;42.152;24.756;2024-03-17T12:40:19;7.20;;;6.60;;
7179;SDS011;3631;42.152;24.756;2024-03-17T12:42:47;6.85;;;6.10;;
7179;SDS011;3631;42.152;24.756;2024-03-17T12:45:19;6.68;;;6.18;;
7179;SDS011;3631;42.152;24.756;2024-03-17T12:47:47;6.22;;;5.82;;
7179;SDS011;3631;42.152;24.756;2024-03-17T12:50:14;8.05;;;6.72;;
7179;SDS011;3631;42.152;24.756;2024-03-17T12:52:46;7.57;;;6.65;;
7179;SDS011;3631;42.152;24.756;2024-03-17T12:55:18;6.35;;;5.32;;
7179;SDS011;3631;42.152;24.756;2024-03-17T12:58:07;6.28;;;5.88;;
7179;SDS011;3631;42.152;24.756;2024-03-17T13:00:58;5.78;;;5.28;;
7179;SDS011;3631;42.152;24.756;2024-03-17T13:03:26;5.97;;;5.55;;
7179;SDS011;3631;42.152;24.756;2024-03-17T13:05:54;6.15;;;5.65;;
7179;SDS011;3631;42.152;24.756;2024-03-17T13:08:23;7.53;;;6.30;;
7179;SDS011;3631;42.152;24.756;2024-03-17T13:10:50;7.57;;;6.88;;
7179;SDS011;3631;42.152;24.756;2024-03-17T13:13:17;8.43;;;6.20;;
7179;SDS011;3631;42.152;24.756;2024-03-17T13:15:44;6.75;;;5.97;;
7179;SDS011;3631;42.152;24.756;2024-03-17T13:18:16;7.20;;;6.60;;
7179;SDS011;3631;42.152;24.756;2024-03-17T13:20:45;6.40;;;5.80;;
7179;SDS011;3631;42.152;24.756;2024-03-17T13:23:14;10.07;;;6.88;;
7179;SDS011;3631;42.152;24.756;2024-03-17T13:25:43;10.48;;;6.95;;
7179;SDS011;3631;42.152;24.756;2024-03-17T13:28:10;10.23;;;6.53;;
7179;SDS011;3631;42.152;24.756;2024-03-17T13:30:37;7.35;;;6.38;;
7179;SDS011;3631;42.152;24.756;2024-03-17T13:33:05;6.10;;;5.65;;
7179;SDS011;3631;42.152;24.756;2024-03-17T13:35:34;7.20;;;6.55;;
7179;SDS011;3631;42.152;24.756;2024-03-17T13:38:04;6.38;;;5.78;;
7179;SDS011;3631;42.152;24.756;2024-03-17T13:40:32;6.53;;;6.03;;
7179;SDS011;3631;42.152;24.756;2024-03-17T13:43:00;6.43;;;5.85;;
7179;SDS011;3631;42.152;24.756;2024-03-17T13:45:28;6.70;;;6.10;;
7179;SDS011;3631;42.152;24.756;2024-03-17T13:47:58;5.78;;;5.35;;
7179;SDS011;3631;42.152;24.756;2024-03-17T13:50:26;6.53;;;6.03;;
7179;SDS011;3631;42.152;24.756;2024-03-17T13:52:53;5.95;;;5.55;;
7179;SDS011;3631;42.152;24.756;2024-03-17T13:55:21;6.40;;;5.90;;
7179;SDS011;3631;42.152;24.756;2024-03-17T13:57:50;6.30;;;5.72;;
7179;SDS011;3631;42.152;24.756;2024-03-17T14:00:21;6.10;;;5.70;;
7179;SDS011;3631;42.152;24.756;2024-03-17T14:02:49;6.57;;;5.60;;
7179;SDS011;3631;42.152;24.756;2024-03-17T14:05:18;6.68;;;6.18;;
7179;SDS011;3631;42.152;24.756;2024-03-17T14:07:47;7.05;;;6.32;;
7179;SDS011;3631;42.152;24.756;2024-03-17T14:10:15;10.95;;;6.75;;
7179;SDS011;3631;42.152;24.756;2024-03-17T14:12:43;6.47;;;5.93;;
7179;SDS011;3631;42.152;24.756;2024-03-17T14:15:11;6.63;;;6.13;;
7179;SDS011;3631;42.152;24.756;2024-03-17T14:17:40;6.65;;;6.15;;
7179;SDS011;3631;42.152;24.756;2024-03-17T14:20:08;9.85;;;8.57;;
7179;SDS011;3631;42.152;24.756;2024-03-17T14:22:36;8.20;;;7.40;;
7179;SDS011;3631;42.152;24.756;2024-03-17T14:25:04;7.07;;;6.38;;
7179;SDS011;3631;42.152;24.756;2024-03-17T14:27:31;6.72;;;6.13;;
7179;SDS011;3631;42.152;24.756;2024-03-17T14:29:59;5.82;;;5.43;;
7179;SDS011;3631;42.152;24.756;2024-03-17T14:32:25;5.45;;;5.07;;
7179;SDS011;3631;42.152;24.756;2024-03-17T14:34:54;6.22;;;5.72;;
7179;SDS011;3631;42.152;24.756;2024-03-17T14:37:21;6.18;;;5.78;;
7179;SDS011;3631;42.152;24.756;2024-03-17T14:39:48;11.65;;;6.15;;
7179;SDS011;3631;42.152;24.756;2024-03-17T14:42:15;6.85;;;6.28;;
7179;SDS011;3631;42.152;24.756;2024-03-17T14:44:42;6.75;;;6.15;;
7179;SDS011;3631;42.152;24.756;2024-03-17T14:47:10;7.10;;;6.40;;
7179;SDS011;3631;42.152;24.756;2024-03-17T14:49:37;9.20;;;6.22;;